| time (UTC) | temp C | wind direction | speed KPH | gust KPH | rain 1hr cm | rain 24hr cm | rain mn cm | humidity % | barometer mb |
| 20260831171537 | 29 | 267 | 1.6 | 12.9 | 0.00 | 0.00 | 0.00 | 68 | 1010.4 |
| 20260831170033 | 29 | 319 | 3.2 | 9.7 | 0.00 | 0.00 | 0.00 | 69 | 1010.4 |
| 20260831164531 | 28 | 5 | 4.8 | 14.5 | 0.00 | 0.00 | 0.00 | 69 | 1010.3 |
| 20260831163038 | 28 | 298 | 3.2 | 12.9 | 0.00 | 0.00 | 0.00 | 70 | 1010.1 |
| 20260831161526 | 28 | 315 | 3.2 | 9.7 | 0.00 | 0.00 | 0.00 | 70 | 1009.9 |
| 20260831160036 | 28 | 310 | 1.6 | 6.4 | 0.00 | 0.00 | 0.00 | 73 | 1009.9 |
| 20260831154522 | 27 | 312 | 3.2 | 14.5 | 0.00 | 0.00 | 0.00 | 73 | 1010.0 |
| 20260831153020 | 27 | 327 | 6.4 | 14.5 | 0.00 | 0.00 | 0.00 | 74 | 1010.0 |
| 20260831151522 | 27 | 298 | 4.8 | 12.9 | 0.00 | 0.00 | 0.00 | 75 | 1009.8 |
| 20260831150019 | 26 | 286 | 6.4 | 12.9 | 0.00 | 0.00 | 0.00 | 78 | 1009.6 |
| 20260831144519 | 26 | 229 | 4.8 | 12.9 | 0.00 | 0.00 | 0.00 | 80 | 1009.3 |
| 20260831143008 | 25 | 280 | 4.8 | 12.9 | 0.00 | 0.00 | 0.00 | 81 | 1009.2 |
| 20260831141506 | 25 | 291 | 4.8 | 9.7 | 0.00 | 0.00 | 0.00 | 81 | 1009.0 |
| 20260831140002 | 24 | 232 | 3.2 | 8.0 | 0.00 | 0.00 | 0.00 | 83 | 1008.9 |
| 20260831134602 | 23 | 225 | 1.6 | 8.0 | 0.00 | 0.00 | 0.00 | 85 | 1008.9 |
| 20260831133055 | 23 | 273 | 3.2 | 11.3 | 0.00 | 0.00 | 0.00 | 86 | 1008.5 |
| 20260831131548 | 23 | 249 | 3.2 | 6.4 | 0.00 | 0.00 | 0.00 | 87 | 1008.5 |
| 20260831130049 | 22 | 241 | 3.2 | 6.4 | 0.00 | 0.00 | 0.00 | 89 | 1008.3 |
| 20260831124549 | 22 | 198 | 1.6 | 8.0 | 0.00 | 0.00 | 0.00 | 90 | 1008.0 |
| 20260831123040 | 22 | 193 | 4.8 | 8.0 | 0.00 | 0.00 | 0.00 | 90 | 1008.0 |
| 20260831121536 | 22 | 209 | 1.6 | 4.8 | 0.00 | 0.00 | 0.00 | 90 | 1007.9 |
| 20260831120049 | 22 | 209 | 0.0 | 4.8 | 0.00 | 0.00 | 0.00 | 90 | 1007.8 |
| 20260831114531 | 22 | 209 | 0.0 | 3.2 | 0.00 | 0.00 | 0.00 | 89 | 1007.5 |
| 20260831113029 | 22 | 205 | 1.6 | 6.4 | 0.00 | 0.00 | 0.00 | 89 | 1007.3 |
| 20260831111527 | 22 | 193 | 1.6 | 6.4 | 0.00 | 0.00 | 0.00 | 89 | 1007.2 |
| 20260831110028 | 22 | 189 | 3.2 | 9.7 | 0.00 | 0.00 | 0.00 | 89 | 1006.9 |
| 20260831104527 | 22 | 180 | 4.8 | 9.7 | 0.00 | 0.00 | 0.00 | 89 | 1006.7 |
| 20260831103027 | 22 | 241 | 3.2 | 9.7 | 0.00 | 0.00 | 0.00 | 89 | 1006.9 |
| 20260831101525 | 22 | 166 | 1.6 | 4.8 | 0.00 | 0.00 | 0.00 | 88 | 1006.8 |
| 20260831100025 | 22 | 160 | 3.2 | 8.0 | 0.00 | 0.00 | 0.00 | 88 | 1006.8 |
| 20260831094523 | 22 | 175 | 3.2 | 6.4 | 0.00 | 0.00 | 0.00 | 88 | 1006.9 |
| 20260831093023 | 22 | 178 | 4.8 | 8.0 | 0.00 | 0.00 | 0.00 | 87 | 1006.7 |
| 20260831091522 | 22 | 180 | 6.4 | 9.7 | 0.00 | 0.00 | 0.00 | 87 | 1006.8 |
| 20260831090020 | 23 | 182 | 6.4 | 12.9 | 0.00 | 0.00 | 0.00 | 87 | 1006.7 |
| 20260831084523 | 22 | 186 | 4.8 | 9.7 | 0.00 | 0.00 | 0.00 | 86 | 1006.7 |
| 20260831083019 | 23 | 167 | 6.4 | 9.7 | 0.00 | 0.00 | 0.00 | 86 | 1006.7 |
| 20260831081521 | 23 | 164 | 6.4 | 11.3 | 0.00 | 0.00 | 0.00 | 85 | 1006.6 |
| 20260831080028 | 23 | 161 | 6.4 | 9.7 | 0.00 | 0.00 | 0.00 | 85 | 1006.5 |
| 20260831074514 | 23 | 175 | 3.2 | 8.0 | 0.00 | 0.00 | 0.00 | 84 | 1006.7 |
| 20260831073013 | 23 | 167 | 6.4 | 12.9 | 0.00 | 0.00 | 0.00 | 84 | 1006.6 |
| 20260831071511 | 23 | 167 | 6.4 | 14.5 | 0.00 | 0.00 | 0.00 | 84 | 1006.6 |
| 20260831070013 | 23 | 170 | 3.2 | 14.5 | 0.00 | 0.00 | 0.00 | 83 | 1006.8 |
| 20260831064508 | 23 | 161 | 8.0 | 17.7 | 0.00 | 0.00 | 0.00 | 83 | 1007.0 |
| 20260831063007 | 23 | 165 | 8.0 | 14.5 | 0.00 | 0.00 | 0.00 | 83 | 1007.2 |
| 20260831061502 | 23 | 173 | 8.0 | 14.5 | 0.00 | 0.00 | 0.00 | 82 | 1007.3 |
| 20260831060058 | 23 | 171 | 6.4 | 14.5 | 0.00 | 0.00 | 0.00 | 82 | 1007.5 |
| 20260831054554 | 23 | 182 | 8.0 | 16.1 | 0.00 | 0.00 | 0.00 | 82 | 1007.5 |
| 20260831053050 | 23 | 172 | 9.7 | 16.1 | 0.00 | 0.00 | 0.00 | 82 | 1007.7 |
| 20260831051555 | 23 | 145 | 8.0 | 12.9 | 0.00 | 0.00 | 0.00 | 81 | 1008.0 |
| 20260831050042 | 23 | 156 | 4.8 | 12.9 | 0.00 | 0.00 | 0.00 | 81 | 1008.3 |
| 20260831044540 | 23 | 172 | 4.8 | 11.3 | 0.00 | 0.00 | 0.00 | 81 | 1008.2 |
| 20260831043039 | 23 | 163 | 6.4 | 11.3 | 0.00 | 0.00 | 0.00 | 81 | 1008.3 |
| 20260831041539 | 23 | 177 | 1.6 | 14.5 | 0.00 | 0.00 | 0.00 | 81 | 1008.3 |
| 20260831040039 | 23 | 161 | 4.8 | 12.9 | 0.00 | 0.00 | 0.00 | 80 | 1008.3 |
| 20260831034546 | 23 | 182 | 8.0 | 11.3 | 0.00 | 0.00 | 0.00 | 80 | 1008.1 |
| 20260831033038 | 24 | 173 | 9.7 | 17.7 | 0.00 | 0.00 | 0.00 | 79 | 1008.2 |
| 20260831031538 | 24 | 149 | 9.7 | 14.5 | 0.00 | 0.00 | 0.00 | 78 | 1008.2 |
| 20260831030037 | 24 | 170 | 11.3 | 22.5 | 0.00 | 0.00 | 0.00 | 77 | 1007.9 |
| 20260831024539 | 25 | 168 | 8.0 | 16.1 | 0.00 | 0.00 | 0.00 | 76 | 1008.0 |
| 20260831023036 | 25 | 148 | 8.0 | 16.1 | 0.00 | 0.00 | 0.00 | 75 | 1008.1 |
| 20260831021539 | 25 | 178 | 12.9 | 25.7 | 0.00 | 0.00 | 0.00 | 74 | 1008.1 |
| 20260831020035 | 25 | 166 | 9.7 | 17.7 | 0.00 | 0.00 | 0.00 | 72 | 1008.2 |
| 20260831014534 | 26 | 153 | 8.0 | 16.1 | 0.00 | 0.00 | 0.00 | 71 | 1008.2 |
| 20260831013034 | 26 | 162 | 16.1 | 24.1 | 0.00 | 0.00 | 0.00 | 70 | 1008.2 |
| 20260831011543 | 26 | 164 | 16.1 | 32.2 | 0.00 | 0.00 | 0.00 | 68 | 1007.9 |
| 20260831010039 | 27 | 150 | 12.9 | 32.2 | 0.00 | 0.00 | 0.00 | 64 | 1007.7 |
| 20260831004532 | 28 | 172 | 19.3 | 29.0 | 0.00 | 0.00 | 0.00 | 62 | 1007.5 |
| 20260831003036 | 28 | 140 | 8.0 | 12.9 | 0.00 | 0.00 | 0.00 | 63 | 1007.5 |
| 20260831001531 | 28 | 164 | 8.0 | 17.7 | 0.00 | 0.00 | 0.00 | 61 | 1007.0 |
| 20260831000032 | 29 | 169 | 9.7 | 17.7 | 0.00 | 0.00 | 0.00 | 62 | 1007.0 |
| 20260830234538 | 30 | 172 | 11.3 | 19.3 | 0.00 | 0.00 | 0.00 | 63 | 1006.9 |
| 20260830233030 | 30 | 169 | 8.0 | 25.7 | 0.00 | 0.00 | 0.00 | 64 | 1007.0 |
| 20260830231530 | 30 | 155 | 12.9 | 25.7 | 0.00 | 0.00 | 0.00 | 63 | 1007.0 |
| 20260830230028 | 30 | 178 | 8.0 | 29.0 | 0.00 | 0.00 | 0.00 | 63 | 1007.1 |
| 20260830224528 | 30 | 153 | 3.2 | 8.0 | 0.00 | 0.00 | 0.00 | 65 | 1006.9 |
| 20260830223027 | 30 | 107 | 3.2 | 9.7 | 0.00 | 0.00 | 0.00 | 66 | 1006.8 |
| 20260830221540 | 30 | 86 | 4.8 | 12.9 | 0.00 | 0.00 | 0.00 | 66 | 1006.7 |
| 20260830220026 | 30 | 78 | 3.2 | 17.7 | 0.00 | 0.00 | 0.00 | 65 | 1007.0 |
| 20260830214523 | 30 | 146 | 1.6 | 11.3 | 0.00 | 0.00 | 0.00 | 66 | 1007.1 |
| 20260830213023 | 30 | 104 | 3.2 | 12.9 | 0.00 | 0.00 | 0.00 | 65 | 1007.1 |
| 20260830211521 | 29 | 82 | 4.8 | 22.5 | 0.00 | 0.00 | 0.00 | 67 | 1007.3 |
| 20260830210019 | 30 | 99 | 4.8 | 16.1 | 0.00 | 0.00 | 0.00 | 65 | 1007.5 |
| 20260830204518 | 29 | 157 | 4.8 | 14.5 | 0.00 | 0.00 | 0.00 | 66 | 1007.6 |
| 20260830203016 | 30 | 115 | 6.4 | 14.5 | 0.00 | 0.00 | 0.00 | 63 | 1007.8 |
| 20260830201514 | 30 | 106 | 4.8 | 16.1 | 0.00 | 0.00 | 0.00 | 65 | 1008.0 |
| 20260830200031 | 29 | 117 | 6.4 | 16.1 | 0.00 | 0.00 | 0.00 | 66 | 1007.9 |
| 20260830194512 | 29 | 175 | 8.0 | 19.3 | 0.00 | 0.00 | 0.00 | 65 | 1007.9 |
| 20260830193011 | 29 | 28 | 4.8 | 20.9 | 0.00 | 0.00 | 0.00 | 66 | 1008.0 |
| 20260830191508 | 29 | 56 | 6.4 | 16.1 | 0.00 | 0.00 | 0.00 | 66 | 1007.8 |
| 20260830190013 | 28 | 44 | 6.4 | 20.9 | 0.00 | 0.00 | 0.00 | 67 | 1008.0 |
| 20260830184619 | 28 | 174 | 6.4 | 20.9 | 0.00 | 0.00 | 0.00 | 68 | 1008.1 |
| 20260830184501 | 28 | 130 | 8.0 | 20.9 | 0.00 | 0.00 | 0.00 | 67 | 1008.1 |
| 20260830183111 | 27 | 153 | 6.4 | 16.1 | 0.00 | 0.00 | 0.00 | 69 | 1008.6 |
| 20260830181556 | 27 | 148 | 8.0 | 17.7 | 0.00 | 0.00 | 0.00 | 70 | 1008.6 |
| 20260830180057 | 27 | 130 | 9.7 | 16.1 | 0.00 | 0.00 | 0.00 | 71 | 1008.7 |
| 20260830174604 | 26 | 200 | 6.4 | 16.1 | 0.00 | 0.00 | 0.00 | 72 | 1008.8 |
| 20260830173047 | 26 | 84 | 3.2 | 14.5 | 0.00 | 0.00 | 0.00 | 75 | 1009.1 |